Terminal Aerodrome Forecast
Issued by NWS Buffalo, NY

Current Version | Previous Version | Text Only | Print | Product List | Glossary On
Versions: 1 2 3 4 5 6 7 8 9 10 11 12 13 14 15 16 17 18 19 20 21 22 23 24
000
FTUS41 KBUF 250919 AAA
TAFROC
TAF AMD
KROC 250919Z 2509/2606 21012G20KT P6SM BKN200 WS020/23050KT
     FM251300 23012KT P6SM BKN060
     FM251600 24012G20KT P6SM VCSH BKN025
     FM251800 27012KT P6SM VCSH OVC015
     FM252200 27011KT P6SM OVC025
     FM260000 29010KT P6SM OVC035=

USA.gov is the U.S. government's official web portal to all federal, state and local government web resources and services.